Skip to main content.
Our real time weather data display below is updated continuously via our 24/7 live data feed.
 TIME   TEMPERATURE   WINDSPEED   DIRECTION   HUMIDITY   BAROMETER   RAINFALL 
10:45 16.0°C (60.8°F) 11.1 kmh (6.9 mph) N 77% 1014.9hPa (29.97 inHg) 0.0mm (0.00 in.)
9:45 15.0°C (59.0 °F) 16.7 kmh (10.4 mph) N 93% 1014.9hPa (29.97 inHg) 0.0mm (0.00 in.)
8:45 14.0°C (57.2 °F) 13.0 kmh (8.1 mph) N 100% 1014.9hPa (29.97 inHg) 0.0mm (0.00 in.)
7:45 12.0°C (53.6 °F) 5.6 kmh (3.5 mph) NNW 100% 1014.9hPa (29.97 inHg) 0.0mm (0.00 in.)
6:40 10.0°C (50.0 °F) 9.3 kmh (5.8 mph) N 100% 1014.9hPa (29.97 inHg) 0.0mm (0.00 in.)
5:40 11.0°C (51.8 °F) 9.3 kmh (5.8 mph) N 100% 1014.9hPa (29.97 inHg) 0.0mm (0.00 in.)
4:40 11.0°C (51.8 °F) 7.4 kmh (4.6 mph) N 100% 1014.9hPa (29.97 inHg) 0.0mm (0.00 in.)
3:40 11.0°C (51.8 °F) 7.4 kmh (4.6 mph) N 100% 1014.9hPa (29.97 inHg) 0.0mm (0.00 in.)
2:40 11.0°C (51.8 °F) 9.3 kmh (5.8 mph) N 100% 1014.9hPa (29.97 inHg) 0.0mm (0.00 in.)
1:40 12.0°C (53.6 °F) 11.1 kmh (6.9 mph) N 100% 1014.9hPa (29.97 inHg) 0.0mm (0.00 in.)
12:40 12.0°C (53.6 °F) 11.1 kmh (6.9 mph) N 93% 1015.9hPa (30.00 inHg) 0.0mm (0.00 in.)
11:40 13.0°C (55.4 °F) 1.9 kmh (1.2 mph) N 93% 1015.9hPa (30.00 inHg) 0.0mm (0.00 in.)
10:40 13.0°C (55.4 °F) 5.6 kmh (3.5 mph) N 93% 1015.9hPa (30.00 inHg) 0.0mm (0.00 in.)
9:40 14.0°C (57.2 °F) 1.9 kmh (1.2 mph) N 87% 1014.9hPa (29.97 inHg) 0.0mm (0.00 in.)
8:40 15.0°C (59.0 °F) 3.7 kmh (2.3 mph) N 82% 1014.9hPa (29.97 inHg) 0.0mm (0.00 in.)
7:40 15.0°C (59.0 °F) 7.4 kmh (4.6 mph) N 82% 1014.9hPa (29.97 inHg) 0.0mm (0.00 in.)
6:40 18.0°C (64.4 °F) 5.6 kmh (3.5 mph) N 67% 1013.9hPa (29.94 inHg) 0.0mm (0.00 in.)
5:40 20.0°C (68.0 °F) 5.6 kmh (3.5 mph) N 59% 1013.9hPa (29.94 inHg) 0.0mm (0.00 in.)
4:40 21.0°C (69.8 °F) 11.1 kmh (6.9 mph) N 52% 1013.9hPa (29.94 inHg) 0.0mm (0.00 in.)
3:40 21.0°C (69.8 °F) 7.4 kmh (4.6 mph) N 52% 1013.9hPa (29.94 inHg) 0.0mm (0.00 in.)
2:40 21.0°C (69.8 °F) 13.0 kmh (8.1 mph) N 56% 1014.9hPa (29.97 inHg) 0.0mm (0.00 in.)
1:40 21.0°C (69.8 °F) 14.8 kmh (9.2 mph) N 56% 1014.9hPa (29.97 inHg) 0.0mm (0.00 in.)
12:40 20.0°C (68.0 °F) 16.7 kmh (10.4 mph) N 59% 1015.9hPa (30.00 inHg) 0.0mm (0.00 in.)
11:40 19.0°C (66.2 °F) 16.7 kmh (10.4 mph) N 68% 1015.9hPa (30.00 inHg) 0.0mm (0.00 in.)